Weather at F6 Ranch Airport

Public forecast

Using degrees Fahrenheit for public forecast. Weather courtesy of forecast.io.

Closest aviation weather report (METAR) to F6 Ranch Airport

Closest report is Kimble County Airport, 16.7 nm (30.9 km) E.

2023/06/07 14:51 (retrieved 29 minutes ago)

KJCT 071451Z AUTO 00000KT 10SM CLR 25/19 A2997 RMK AO2 SLP113 T02500189 51013

Closest aviation forecast (TAF) to F6 Ranch Airport

Closest forecast is Kimble County Airport, 16.7 nm (30.9 km) E.

2023/06/07 12:22 (retrieved 3 hours ago)

TAF KJCT 071120Z 0712/0812 VRB05KT P6SM SCT250 FM071900 09006KT P6SM VCTS SCT050CB FM080200 VRB06KT P6SM BKN250